Wales, AK

4:42 PM AKDT on October 24, 2014 (GMT -0800)
Tin City LRRS | Change Station
CLOSE
Current Station
Airport
Location: Tin City,
Elevation: 272 ft
Nearby Weather Stations

Elev 272 ft 65.56 °N, 167.92 °W | Updated 47 minutes ago

Clear
Clear
33 °F
Feels Like 25 °F
N
10
Wind Variable Wind from WSW

Today
High -- | Low -- °F
--% Chance of Precip.
Yesterday
High -- | Low -- °F
Precip. -- in
10:37 AM 7:13 PM
New Moon, 1% visible
Pressure 29.68 in
Visibility 8.0 miles
Clouds Clear
Windchill 25 °F
Dew Point 32 °F
Humidity 97%
Rainfall 0.02 in
Snow Depth Not available.
UV 1 out of 12
Pollen Not available.
Air Quality Not available.
Flu Activity Local Activity
METAR PATC 242355Z AUTO 24009KT 8SM CLR 01/00 A2966 RMK AO2 SLP049 T00050001 10009 20001 52005

More Conditions Fewer Conditions

Pressure 29.68 in
Visibility 8.0 miles
Clouds Clear
Windchill 25 °F
Dew Point 32 °F
Humidity 97%
Rainfall 0.02 in
Snow Depth Not available.
UV 1 out of 12
Pollen Not available.
Air Quality Not available.
Flu Activity Local Activity
METAR PATC 242355Z AUTO 24009KT 8SM CLR 01/00 A2966 RMK AO2 SLP049 T00050001 10009 20001 52005

More Conditions Fewer Conditions

10-Day Weather Forecast

Almanac

Astronomy

Oct. 24, 2014 Rise Set
Actual Time 10:37 AM AKDT 7:13 PM AKDT
Civil Twilight 9:43 AM AKDT 8:06 PM AKDT
Nautical Twilight 8:44 AM AKDT 9:05 PM AKDT
Astronomical Twilight 7:45 AM AKDT 10:03 PM AKDT
Moon 11:49 AM AKDT (10/24) 7:36 PM AKDT (10/24)
Length of Visible Light 10h 23m
Length of Day
8h 35m
Tomorrow will be 7m 1s shorter.
New Moon, 1% of the Moon is Illuminated
Today
New Moon
Oct 30
First Quarter
Nov 6
Full
Nov 14
Last Quarter
Nov 22
New

Today's Extremes

State Highs State Lows

Community

WunderPhotos

Upload Photos

1,764,735 photos uploaded!

WunderBlogs® & News

Nearby

Snow Depth

Station Depth Elevation
Pargon Creek 0 in 300 ft
Rocky Point 3 in 500 ft
Gobblers Knob 2 in 2030 ft
Coldfoot 5 in 1040 ft
Atigun Pass 14 in 4800 ft

Earthquake Activity

City Distance Mag. Time & Date
No recent earthquake activity has been reported nearby.
Minimum magnitude displayed is 2.5.

Coastal Water Temperatures

Place Temperature
No Stations Reporting

Nearby Weather Stations